Date,TemperatureHighF,TemperatureAvgF,TemperatureLowF,DewpointHighF,DewpointAvgF,DewpointLowF,HumidityHigh,HumidityAvg,HumidityLow,PressureMaxIn,PressureMinIn,WindSpeedMaxMPH,WindSpeedAvgMPH,GustSpeedMaxMPH,PrecipitationSumIn
2014-1-1,43,30,19,22,16,11,77,59,35,30.26,30.05,9,1,13,0.00
2014-1-2,44,26,13,18,12,7,81,60,29,30.38,30.25,3,0,5,0.00
2014-1-3,50,29,13,15,8,3,76,46,16,30.25,29.86,7,1,14,0.00
2014-1-4,46,34,16,21,12,-1,60,41,29,29.85,29.50,20,5,30,0.00
2014-1-5,26,15,4,2,-3,-6,65,47,31,30.42,29.84,8,2,12,0.00
2014-1-6,33,15,0,3,-2,-8,71,50,27,30.59,30.42,5,0,9,0.00
2014-1-7,38,22,7,13,8,0,80,56,35,30.50,30.13,4,0,5,0.00
2014-1-8,41,25,9,16,12,4,86,58,36,30.16,30.03,3,0,7,0.00
2014-1-9,43,30,20,21,16,13,73,57,32,30.09,29.77,9,1,16,0.00
2014-1-10,40,32,22,21,16,12,70,53,38,30.00,29.68,22,5,26,0.00
2014-1-11,50,33,20,21,17,13,74,54,30,30.20,29.90,4,0,7,0.00
2014-1-12,44,31,16,22,15,6,74,54,34,30.04,29.67,26,4,28,0.00
2014-1-13,38,23,10,14,9,3,76,56,35,30.33,30.04,11,1,16,0.00
2014-1-14,42,26,12,16,12,7,86,57,32,30.46,30.27,9,2,14,0.00
2014-1-15,47,28,14,17,12,7,77,53,29,30.43,30.20,4,0,9,0.00
2014-1-16,48,29,15,15,11,7,76,49,21,30.27,30.11,8,1,12,0.00
2014-1-17,46,27,12,14,9,4,74,50,25,30.33,30.20,5,0,9,0.00
2014-1-18,49,29,15,17,12,8,75,53,27,30.35,30.21,4,1,9,0.00
2014-1-19,48,29,15,19,14,8,84,57,30,30.35,30.17,6,0,10,0.00
2014-1-20,51,31,14,18,14,9,81,52,23,30.47,30.19,11,1,11,0.00
2014-1-21,48,29,15,16,11,7,78,50,22,30.50,30.26,3,0,8,0.00
2014-1-22,41,25,10,14,8,4,81,54,25,30.26,30.02,2,0,5,0.00
2014-1-23,31,23,11,18,12,6,84,63,46,30.59,30.08,7,1,10,0.00
2014-1-24,42,20,5,15,8,1,88,62,27,30.69,30.52,7,1,9,0.00
2014-1-25,48,26,12,13,10,5,74,52,25,30.57,30.15,4,0,8,0.00
2014-1-26,25,20,17,13,11,10,75,69,59,30.14,30.07,2,0,3,0.00
2014-3-4,49,38,27,34,28,22,93,71,35,29.96,29.74,6,1,0,0.06
2014-3-5,52,39,32,33,28,22,93,67,31,30.07,29.79,4,2,0,0.01
2014-3-6,56,41,28,28,22,16,80,51,22,30.09,29.77,7,1,0,0.00
2014-3-7,51,40,31,33,26,19,84,58,35,29.82,29.63,10,2,0,0.03
2014-3-8,45,34,24,25,21,16,85,60,37,30.30,29.82,6,1,0,0.00
2014-3-9,60,38,19,22,16,12,81,48,15,30.36,30.12,4,1,0,0.00
2014-3-10,66,40,29,22,18,10,61,45,15,30.12,29.71,8,1,15,0.00
2014-3-11,52,44,30,18,11,2,47,27,15,29.93,29.59,19,7,26,0.00
2014-3-12,49,35,16,16,11,7,71,40,21,30.25,29.94,24,2,24,0.00
2014-3-13,57,43,22,22,17,9,64,38,21,30.21,29.79,12,2,15,0.00
2014-3-14,53,40,31,35,30,22,85,69,40,29.93,29.82,9,2,19,0.02
2014-3-15,49,36,27,35,26,18,94,71,32,30.12,29.76,15,2,22,0.01
2014-3-16,57,37,20,18,14,11,77,44,21,30.29,30.03,13,3,18,0.00
2014-3-17,60,45,28,22,16,10,58,33,16,30.03,29.26,20,5,32,0.00
2014-3-18,48,37,24,12,5,-1,38,27,18,29.89,29.26,14,4,24,0.00
2014-3-19,50,34,19,13,7,1,62,35,16,30.19,29.90,10,2,17,0.00
2014-3-20,60,41,20,9,5,1,46,25,12,30.16,29.83,10,2,17,0.00
2014-3-21,62,47,30,16,10,4,37,24,14,29.84,29.66,18,3,20,0.00
2014-3-22,58,44,28,22,17,12,59,36,21,29.93,29.73,14,3,26,0.00
2014-3-23,54,39,31,32,23,12,90,58,30,30.25,29.94,15,2,21,0.02
2014-3-24,62,46,26,15,11,6,53,27,13,30.26,30.07,12,2,17,0.00
2014-3-25,62,47,26,21,15,6,49,29,15,30.25,29.90,12,3,20,0.00
2014-3-26,59,47,35,34,29,18,84,52,28,29.90,29.47,15,5,40,0.00
2014-3-27,49,41,33,30,22,17,83,50,32,29.96,29.63,24,8,28,0.00
2014-3-28,56,43,28,22,17,8,65,37,18,30.29,29.94,12,3,21,0.00
2014-3-29,62,47,23,24,17,7,55,32,21,30.37,30.11,13,4,18,0.00
2014-3-30,63,49,36,22,17,7,46,30,16,30.14,29.67,21,5,33,0.00
2014-3-31,55,42,26,16,10,7,52,29,15,29.99,29.82,19,4,27,0.00
2014-4-1,63,50,36,18,13,9,33,24,15,29.99,29.65,21,6,32,0.00
2014-4-2,60,46,31,22,15,10,43,30,19,29.73,29.57,22,5,26,0.00
2014-4-3,40,32,23,31,21,9,92,67,31,30.27,29.66,15,3,24,0.06
2014-4-4,52,34,19,28,20,14,88,60,23,30.36,30.07,11,2,16,0.11
2014-4-5,48,37,30,33,25,17,89,62,40,30.07,29.77,18,3,24,0.02
2014-4-6,50,37,29,36,30,22,94,78,34,30.07,29.90,12,2,20,0.13
2014-4-7,55,40,24,29,21,14,92,53,20,30.35,30.06,15,4,21,0.02
2014-4-8,65,51,26,25,22,17,70,35,20,30.39,30.19,10,2,14,0.00
2014-4-9,71,52,33,26,21,16,59,33,14,30.23,29.93,16,2,22,0.00
2014-4-10,71,56,38,22,16,10,44,23,12,29.99,29.85,16,4,23,0.00
2014-4-11,71,57,33,22,15,9,42,21,11,30.03,29.82,11,3,18,0.00
2014-4-12,68,53,40,37,22,9,61,31,20,29.86,29.59,17,5,31,0.01
2014-4-13,63,48,33,34,28,22,90,49,23,30.04,29.75,19,6,34,0.11
2014-4-14,44,32,21,29,23,18,90,71,41,30.62,30.05,9,2,14,0.14
2014-4-15,60,40,22,22,18,11,76,45,17,30.62,29.85,18,3,26,0.00
2014-4-16,65,48,31,35,19,13,88,35,17,29.84,29.62,14,3,24,0.06
2014-4-17,63,48,32,36,30,24,92,57,26,30.04,29.83,10,2,17,0.01
2014-4-18,70,54,34,32,28,24,70,40,21,30.05,29.79,17,3,17,0.00
2014-4-19,64,53,41,42,36,30,88,55,31,29.88,29.72,17,2,21,0.01
2014-4-20,63,51,42,44,41,37,93,70,40,29.98,29.83,13,2,18,0.22
2014-4-21,72,56,37,44,36,29,89,54,21,30.41,29.95,15,3,20,0.00
2014-4-22,72,58,42,40,35,30,73,45,22,30.32,29.95,20,6,27,0.00
2014-4-23,65,55,41,36,27,15,58,36,24,29.98,29.74,21,5,32,0.00
2014-4-24,63,47,30,20,12,3,52,28,12,30.30,29.99,14,3,19,0.00
2014-4-25,70,56,37,24,17,3,32,21,16,30.28,29.94,15,4,21,0.00
2014-4-26,64,49,25,36,23,17,91,41,20,29.94,29.56,24,6,38,0.06
2014-4-27,46,38,27,33,26,16,90,63,36,30.11,29.73,19,9,30,0.17
2014-4-28,51,40,27,25,17,8,67,42,18,30.35,30.08,19,6,31,0.00
2014-4-29,52,36,23,19,13,9,57,40,21,30.39,30.07,15,3,16,0.00
2014-4-30,54,38,24,26,20,15,77,52,23,30.30,30.16,10,2,26,0.00
2014-5-1,57,43,32,31,23,12,91,51,17,30.28,30.09,19,2,23,0.01
2014-5-2,68,53,29,27,23,18,69,34,19,30.27,30.01,10,2,15,0.00
2014-5-3,76,57,38,29,23,17,49,29,15,30.06,29.85,13,2,24,0.00
2014-5-4,76,63,44,28,21,15,37,21,13,29.94,29.77,19,4,27,0.00
2014-5-5,74,61,46,24,19,14,34,20,13,30.20,29.84,14,3,23,0.00
2014-5-6,71,58,44,25,19,11,37,23,15,29.99,29.79,13,4,25,0.00
2014-5-7,66,53,35,30,18,9,64,28,15,30.06,29.78,25,6,32,0.00
2014-5-8,53,41,31,35,25,18,82,54,34,30.42,30.06,14,4,24,0.01
2014-5-9,65,47,28,29,24,20,80,46,19,30.46,30.22,17,3,25,0.00
2014-5-10,73,59,39,31,26,20,56,30,20,30.24,29.84,20,4,23,0.00
2014-5-11,65,54,39,32,25,16,52,33,21,30.01,29.68,20,5,32,0.00
2014-5-12,45,37,31,34,28,17,91,73,43,30.42,30.03,9,1,16,0.07
2014-5-13,44,33,26,31,23,19,82,69,43,30.65,30.32,18,4,27,0.09
2014-5-14,56,39,22,26,20,15,86,52,21,30.67,30.41,10,2,17,0.00
2014-5-15,65,52,30,30,25,20,69,39,24,30.45,30.14,10,1,19,0.00
2014-5-16,74,60,36,33,28,22,62,32,15,30.19,29.88,17,3,20,0.00
2014-5-17,77,63,42,39,31,24,63,33,16,29.95,29.77,16,3,23,0.00
2014-5-18,78,64,47,36,25,12,50,25,13,29.83,29.66,16,3,23,0.00
2014-5-19,78,62,46,25,17,11,31,19,10,29.96,29.74,19,4,21,0.00
2014-5-20,77,64,45,24,16,11,31,17,9,30.15,29.96,14,4,24,0.00
2014-5-21,72,63,47,33,27,15,41,25,20,30.26,30.15,13,3,22,0.00
2014-5-22,74,60,47,44,38,31,77,45,25,30.34,30.13,20,4,31,0.03
2014-5-23,64,52,44,49,45,39,93,77,50,30.41,30.26,12,2,18,0.65
2014-5-24,63,47,40,47,42,37,94,83,50,30.41,30.22,22,2,22,0.46
2014-5-25,58,48,35,43,38,33,94,71,49,30.44,30.33,15,2,15,0.01
2014-5-26,66,53,43,47,42,39,92,67,41,30.41,30.32,8,2,16,0.02
2014-5-27,80,64,43,45,38,31,82,46,17,30.44,30.25,11,2,18,0.00
2014-5-28,81,67,51,49,42,33,75,41,18,30.32,30.13,13,3,19,0.02
2014-5-29,80,64,50,51,45,39,82,54,26,30.34,30.11,14,3,21,0.36
2014-5-30,76,63,49,49,46,40,88,57,31,30.34,30.17,12,2,19,0.00
2014-5-31,82,65,46,46,40,-100,80,45,23,30.30,30.09,13,-8,19,0.00
2014-6-1,80,70,57,42,31,21,48,26,12,30.12,29.97,19,4,26,0.00
2014-6-2,85,69,44,36,27,20,49,23,11,30.24,30.07,10,2,16,0.00
2014-6-3,87,74,54,46,35,27,53,28,16,30.17,29.95,18,4,23,0.00
2014-6-4,87,71,55,37,26,13,33,20,11,30.06,29.90,12,3,24,0.00
2014-6-5,87,72,50,43,28,13,49,21,10,30.06,29.92,16,4,22,0.00
2014-6-6,84,71,55,50,37,13,67,34,11,30.00,29.88,19,3,28,0.00
2014-6-7,77,66,52,50,43,13,77,47,15,30.18,29.99,15,3,23,0.04
2014-6-8,77,61,45,49,40,28,72,48,25,30.20,30.01,17,2,29,0.02
2014-6-9,76,60,40,33,28,22,72,34,14,30.25,30.11,10,2,17,0.00
2014-6-10,83,67,43,37,29,22,57,27,14,30.25,29.99,12,3,23,0.00
2014-6-11,83,70,48,39,30,18,37,23,15,30.05,29.85,18,4,25,0.00
2014-6-12,82,67,50,44,36,31,52,34,18,30.30,30.02,10,3,20,0.00
2014-6-13,79,65,49,52,44,39,76,50,29,30.32,30.10,22,3,28,0.02
2014-6-14,80,65,49,44,32,14,71,34,10,30.18,29.97,21,6,33,0.00
2014-6-15,80,63,40,29,20,13,37,21,10,30.27,30.13,15,4,25,0.00
2014-6-16,82,70,49,27,22,12,27,16,11,30.22,30.05,18,7,29,0.00
2014-6-17,80,70,59,44,35,27,46,28,19,30.18,30.05,22,9,29,0.03
2014-6-18,76,65,55,40,36,32,44,35,23,30.23,30.12,14,3,27,0.00
2014-6-19,81,67,46,36,30,21,53,29,14,30.40,30.23,11,2,17,0.00
2014-6-20,86,70,47,41,29,17,43,24,14,30.42,30.18,13,2,29,0.00
2014-6-21,84,70,54,47,39,26,63,35,18,30.26,30.09,12,1,21,0.00
2014-6-22,86,73,50,37,31,23,44,23,15,30.26,30.08,14,2,20,0.00
2014-6-23,85,71,52,42,35,28,43,28,15,30.30,30.18,13,3,24,0.00
2014-6-24,85,72,53,46,37,28,62,31,14,30.31,30.15,11,3,21,0.00
2014-6-25,86,75,54,48,40,29,68,31,15,30.25,30.06,14,4,21,0.00
2014-6-26,87,72,55,41,31,20,50,25,13,30.19,29.97,17,3,23,0.00
2014-6-27,80,70,57,37,30,21,34,24,17,30.05,29.92,14,4,25,0.00
2014-6-28,85,70,51,38,30,19,48,25,13,30.24,30.04,21,4,36,0.00
2014-6-29,91,74,55,38,31,18,32,21,15,30.31,30.11,15,2,18,0.00
2014-6-30,93,75,54,39,34,27,37,23,13,30.19,29.98,17,2,21,0.00
2014-7-1,87,71,57,52,46,32,76,42,22,30.28,30.06,21,8,31,0.14
2014-7-2,84,67,53,55,49,41,85,57,25,30.47,30.24,19,3,27,0.07
2014-7-3,84,65,50,52,45,39,83,54,25,30.51,30.36,11,2,18,0.00
2014-7-4,86,69,50,56,46,39,87,49,22,30.54,30.34,15,3,19,0.36
2014-7-5,82,67,52,54,50,43,89,58,31,30.52,30.40,20,2,28,0.00
2014-7-6,90,73,50,50,42,36,79,40,17,30.46,30.24,15,2,26,0.00
2014-7-7,89,70,55,54,46,41,71,44,23,30.33,30.14,11,2,22,0.02
2014-7-8,83,64,56,55,50,42,90,62,35,30.52,30.28,15,3,20,0.30
2014-7-9,81,65,50,54,50,46,90,61,30,30.51,30.33,10,1,14,0.00
2014-7-10,86,70,55,52,50,46,80,52,28,30.40,30.17,10,2,17,0.00
2014-7-11,87,68,57,56,51,47,79,56,28,30.38,30.19,13,2,18,0.01
2014-7-12,86,69,52,59,50,46,83,56,27,30.48,30.33,14,3,18,0.14
2014-7-13,82,70,59,56,52,50,88,54,34,30.48,30.34,10,2,15,0.02
2014-7-14,85,70,57,56,53,48,91,59,30,30.48,30.32,19,3,30,0.12
2014-7-15,76,62,53,56,53,48,94,74,45,30.50,30.29,15,2,23,0.20
2014-7-16,76,60,51,56,52,48,94,77,45,30.49,30.25,17,1,22,0.07
2014-7-17,77,65,56,55,50,46,83,61,35,30.35,30.23,10,2,15,0.10
2014-7-18,85,67,51,56,49,43,92,58,24,30.41,30.26,19,3,23,0.01
2014-7-19,84,72,54,53,48,42,72,45,27,30.36,30.22,10,2,20,0.00
2014-7-20,88,73,52,53,47,42,78,43,21,30.38,30.26,7,1,11,0.00
2014-7-21,89,76,61,52,48,44,64,39,23,30.37,30.23,11,2,19,0.00
2014-7-22,92,76,56,52,48,43,68,40,19,30.48,30.34,10,2,16,0.00
2014-7-23,87,71,56,60,53,47,84,56,30,30.50,30.37,10,2,21,0.22
2014-7-24,86,73,56,55,48,41,76,45,25,30.51,30.28,8,2,17,0.00
2014-7-25,91,76,57,50,46,40,56,35,23,30.35,30.14,14,2,16,0.00
2014-7-26,94,76,58,58,48,42,81,42,17,30.33,30.15,10,2,16,0.18
2014-7-27,79,71,59,56,53,47,84,54,40,30.58,30.31,16,2,20,0.11
2014-7-28,76,65,53,57,54,51,94,69,49,30.59,30.47,12,3,20,0.13
2014-7-29,77,64,54,56,54,51,91,72,47,30.54,30.32,9,2,17,0.19
2014-7-30,79,66,54,60,53,49,94,68,37,30.46,30.34,14,1,22,0.09
2014-7-31,78,62,53,58,54,49,92,78,44,30.51,30.31,12,2,19,0.43
2014-8-1,73,60,49,58,53,47,94,77,52,30.57,30.45,10,1,18,0.27
2014-8-2,75,62,52,60,52,48,94,74,43,30.59,30.46,12,1,15,0.05
2014-8-3,77,65,50,55,51,47,92,63,40,30.60,30.41,11,2,18,0.25
2014-8-4,73,62,55,59,56,52,92,81,53,30.48,30.39,22,2,22,0.47
2014-8-5,80,67,55,58,53,45,95,63,34,30.50,30.33,11,1,16,0.00
2014-8-6,85,71,53,51,44,38,81,43,19,30.43,30.27,8,1,14,0.00
2014-8-7,81,67,57,49,46,41,72,49,24,30.33,30.23,17,3,22,0.00
2014-8-8,84,71,49,51,43,34,85,42,18,30.40,30.27,8,2,14,0.00
2014-8-9,84,69,54,50,43,36,69,42,19,30.36,30.24,10,1,15,0.00
2014-8-10,82,70,57,51,45,40,70,44,28,30.53,30.34,15,4,27,0.07
2014-8-11,79,66,48,51,47,42,85,53,34,30.61,30.51,13,2,21,0.00
2014-8-12,79,62,51,53,48,44,81,63,38,30.61,30.47,6,1,11,0.00
2014-8-14,79,72,64,56,52,50,69,50,36,30.33,30.27,12,3,20,0.00
2014-8-15,83,67,54,55,50,45,88,58,31,30.39,30.27,9,1,15,0.00
2014-8-16,85,69,52,50,45,42,76,46,22,30.43,30.29,11,2,19,0.00
2014-8-17,83,68,57,50,44,38,69,43,26,30.41,30.29,13,2,18,0.00
2014-8-18,86,69,53,52,43,36,67,43,19,30.39,30.17,12,2,27,0.00
2014-8-19,84,68,54,50,45,41,63,45,27,30.27,30.07,13,3,19,0.02
2014-8-20,82,70,58,52,47,40,69,45,26,30.23,30.13,10,3,18,0.00
2014-8-21,85,71,48,44,39,36,65,34,20,30.36,30.25,9,2,14,0.00
2014-8-22,70,58,51,53,47,36,92,71,32,30.40,30.25,6,1,10,0.22
2014-8-23,76,60,47,53,47,41,98,68,32,30.50,30.31,9,2,20,0.01
2014-8-24,82,65,47,47,43,39,80,47,27,30.39,30.25,10,2,18,0.00
2014-8-25,84,71,51,54,43,38,70,39,20,30.35,30.19,9,2,16,0.01
2014-8-26,74,61,55,55,51,47,94,72,43,30.47,30.32,16,2,21,0.16
2014-8-27,71,62,52,55,49,41,95,68,39,30.55,30.45,11,2,17,0.34
2014-8-28,71,60,45,47,42,39,79,54,35,30.49,30.38,9,1,14,0.00
2014-8-29,79,60,46,46,40,35,79,52,21,30.47,30.33,8,1,11,0.00
2014-8-30,82,69,49,46,41,37,70,39,23,30.41,30.19,14,3,20,0.00
2014-8-31,84,68,53,44,39,34,59,38,20,30.26,30.12,18,4,29,0.00
2014-9-1,84,72,56,43,37,31,48,30,19,30.26,30.15,15,4,22,0.00
2014-9-2,87,69,49,39,34,30,49,30,16,30.34,30.15,9,2,15,0.00
2014-9-3,87,74,51,43,36,30,55,28,17,30.23,30.08,15,4,19,0.00
2014-9-4,85,72,55,49,41,29,62,34,21,30.28,30.08,12,3,20,0.00
2014-9-5,81,66,55,49,47,44,69,51,28,30.45,30.25,10,2,21,0.00
2014-9-6,79,64,50,53,49,45,89,63,34,30.53,30.40,12,2,19,0.31
2014-9-7,80,65,50,53,48,39,93,58,24,30.54,30.33,6,1,10,0.00
2014-9-8,81,69,52,53,48,41,81,50,25,30.40,30.19,10,2,15,0.00
2014-9-9,80,67,60,56,51,46,80,58,32,30.23,30.05,16,5,24,0.00
2014-9-10,77,65,51,48,42,32,76,48,24,30.34,30.17,9,2,16,0.00
2014-9-11,78,66,49,49,41,30,73,43,26,30.42,30.24,12,3,17,0.00
2014-9-12,78,60,49,50,44,37,81,58,26,30.54,30.31,11,2,17,0.00
2014-9-13,77,59,45,47,42,37,82,58,26,30.59,30.43,12,2,15,0.00
2014-9-14,82,65,48,49,42,34,82,48,18,30.51,30.29,8,1,16,0.00
2014-9-15,82,66,52,52,46,39,81,51,24,30.51,30.36,15,3,21,0.00
2014-9-16,82,60,52,53,48,43,84,66,31,30.52,30.34,14,1,21,0.13
2014-9-17,69,60,51,54,50,46,90,73,55,30.45,30.33,6,0,9,0.00
2014-9-18,81,62,42,48,41,32,80,51,18,30.42,30.25,13,3,20,0.00
2014-9-19,84,67,50,52,46,38,87,52,20,30.32,30.16,11,1,17,0.00
2014-9-20,86,67,52,53,47,42,86,53,22,30.41,30.28,18,3,24,0.00
2014-9-21,83,69,55,51,48,44,75,49,28,30.44,30.32,14,3,20,0.00
2014-9-22,73,62,52,56,53,48,90,74,50,30.48,30.39,9,1,15,0.03
2014-9-23,77,62,52,56,48,39,95,64,29,30.51,30.37,12,2,17,0.15
2014-9-24,82,64,47,48,42,38,75,49,22,30.55,30.38,8,1,17,0.00
2014-9-25,81,62,51,52,46,44,82,59,30,30.52,30.34,10,2,23,0.02
2014-9-26,80,62,47,51,46,42,89,60,28,30.46,30.26,8,1,12,0.00
2014-9-27,75,62,50,52,48,44,85,63,41,30.37,30.17,8,2,14,0.00
2014-9-28,72,59,45,49,44,39,81,61,40,30.38,30.28,10,2,16,0.00
2014-9-29,72,55,40,52,45,35,92,70,31,30.36,30.13,24,2,31,0.32
2014-9-30,64,49,35,38,35,32,92,63,35,30.42,30.34,10,2,20,0.00
2014-10-1,69,52,35,40,34,28,84,54,30,30.41,30.23,16,3,20,0.00
2014-10-2,63,50,39,37,27,18,77,46,19,30.55,30.26,10,3,21,0.00
2014-10-3,69,53,33,29,26,21,69,37,22,30.54,30.38,11,2,16,0.00
2014-10-4,72,54,34,33,28,25,69,40,21,30.44,30.16,9,1,13,0.00
2014-10-5,72,54,34,32,28,24,72,40,18,30.23,30.09,8,1,17,0.00
2014-10-6,75,59,38,30,25,21,61,30,16,30.28,30.10,10,2,17,0.00
2014-10-7,74,54,37,31,24,21,54,34,15,30.27,30.14,7,1,12,0.00
2014-10-8,73,57,42,38,29,18,52,35,20,30.22,30.08,9,1,21,0.00
2014-10-9,64,51,47,53,46,38,95,84,53,30.15,29.97,15,1,20,0.31
2014-10-10,55,49,44,46,43,41,94,80,61,30.34,30.14,7,1,10,0.10
2014-10-11,66,51,45,46,42,38,93,74,38,30.36,30.12,10,1,16,0.00
2014-10-12,61,45,38,41,36,31,87,71,38,30.22,29.79,17,3,39,0.02
2014-10-13,58,43,31,33,27,22,87,57,29,30.49,30.22,11,1,13,0.00
2014-10-14,70,47,30,29,24,21,71,44,19,30.56,30.40,6,0,9,0.00
2014-10-15,75,54,34,31,25,20,61,35,16,30.45,30.21,6,0,13,0.00
2014-10-16,74,56,38,34,26,21,60,34,16,30.29,30.14,13,1,14,0.00
2014-10-17,68,54,40,32,28,22,51,37,23,30.25,30.16,12,0,13,0.00
2014-10-18,64,52,43,48,40,30,93,67,45,30.30,30.18,7,1,11,0.13
2014-10-19,67,49,37,46,40,35,94,74,34,30.37,30.21,11,1,20,0.03
2014-10-20,70,53,40,42,37,35,84,58,28,30.36,30.22,8,1,14,0.00
2014-10-21,59,49,38,47,41,35,90,75,56,30.28,30.16,5,0,7,0.01
2014-10-22,67,55,43,46,39,31,90,58,31,30.32,30.21,8,2,14,0.00
2014-10-23,69,52,35,37,33,30,86,52,27,30.43,30.30,8,1,11,0.00
2014-10-24,75,55,36,37,30,24,76,43,19,30.46,30.32,7,1,14,0.00
2014-10-25,76,56,36,30,26,21,56,33,14,30.42,30.23,10,1,14,0.00
2014-10-26,70,57,44,42,36,29,64,47,32,30.27,29.97,15,3,22,0.00
2014-10-27,64,53,42,36,30,16,66,42,25,30.18,29.95,15,3,21,0.00
2014-10-28,61,49,39,29,19,13,57,32,19,30.42,30.18,9,2,15,0.00
2014-10-29,62,43,25,16,12,5,46,29,16,30.56,30.42,9,1,14,0.00
2014-10-30,66,45,27,22,15,8,49,31,18,30.61,30.47,8,1,12,0.00
2014-10-31,59,43,29,29,22,14,59,45,30,30.64,30.45,7,0,9,0.00
2014-11-1,62,47,35,38,31,24,79,54,32,30.49,30.20,14,2,16,0.00
2014-11-2,46,40,34,38,34,29,91,78,62,30.24,30.11,16,3,30,0.40
2014-11-3,48,37,27,34,25,19,94,64,37,30.46,30.20,9,2,18,0.00
2014-11-4,50,35,25,27,22,19,86,60,35,30.66,30.47,9,1,11,0.00
2014-11-5,58,38,21,23,18,13,86,51,21,30.80,30.64,8,1,12,0.00
2014-11-6,59,41,25,24,19,14,66,43,24,30.84,30.66,4,0,8,0.00
2014-11-7,63,45,26,23,19,15,65,38,20,30.65,30.37,12,1,23,0.00
2014-11-8,56,42,27,27,22,18,76,48,28,30.64,30.50,11,1,19,0.00
2014-11-9,60,41,26,24,19,16,70,46,21,30.55,30.14,6,1,12,0.00
2014-11-10,60,44,31,25,20,17,62,40,24,30.13,29.86,14,4,26,0.00
2014-11-11,54,43,31,23,18,13,57,38,27,30.16,30.05,14,4,25,0.00
2014-11-12,41,28,16,21,16,10,81,63,43,30.59,30.16,4,0,8,0.00
2014-11-13,36,24,13,18,12,6,77,62,45,30.73,30.57,2,0,6,0.00
2014-11-14,48,37,27,36,28,18,91,71,54,30.58,30.20,14,1,27,0.10
2014-11-15,48,39,33,34,30,23,92,70,40,30.24,30.03,15,4,21,0.04
2014-11-16,33,26,14,31,22,10,93,85,68,30.67,30.01,12,2,14,0.19
2014-11-17,33,18,4,22,12,1,89,78,49,30.87,30.67,4,1,7,0.15
2014-11-18,37,21,7,21,13,3,89,73,40,30.93,30.81,4,0,9,0.10
2014-11-19,40,27,15,24,16,11,85,67,42,30.82,30.61,4,1,6,0.02
2014-11-20,47,32,19,22,16,10,75,54,31,30.60,30.44,5,0,7,0.00
2014-11-21,46,33,22,25,21,17,83,62,40,30.45,30.33,4,1,6,0.00
2014-11-22,48,36,21,26,21,16,84,56,38,30.46,30.10,11,2,16,0.00
2014-11-23,37,30,13,30,24,7,91,78,56,30.40,29.97,15,3,19,0.02
2014-11-24,33,19,7,16,10,2,84,69,40,30.91,30.41,5,0,10,0.03
2014-11-25,37,25,8,15,10,3,82,56,39,30.96,30.78,11,3,17,0.01
2014-11-26,49,34,19,27,21,13,82,61,41,30.79,30.70,7,1,11,0.00
2014-11-27,56,40,24,28,24,20,84,56,30,30.85,30.62,4,0,8,0.00
2014-11-28,60,43,29,25,22,18,69,46,24,30.63,30.34,4,1,8,0.00
2014-11-29,57,42,30,26,19,15,59,42,23,30.33,30.16,15,2,16,0.00
2014-11-30,52,42,32,23,19,15,57,41,28,30.43,30.22,11,2,17,0.00
2014-12-1,51,38,31,22,20,17,60,49,31,30.60,30.42,7,1,10,0.00
2014-12-2,52,37,25,23,20,17,73,52,26,30.56,30.40,3,0,7,0.00
2014-12-3,52,42,33,35,27,19,88,59,33,30.46,30.35,2,0,5,0.00
2014-12-4,45,38,32,39,35,29,94,89,76,30.40,30.20,4,0,9,0.46
2014-12-5,51,37,31,39,33,28,95,86,54,30.69,30.37,5,0,9,0.00
2014-12-6,46,39,29,35,32,27,92,77,59,30.78,30.63,5,0,5,0.00
2014-12-7,52,41,31,38,33,25,94,75,46,30.66,30.54,5,1,9,0.06
2014-12-8,52,37,24,30,25,21,86,64,39,30.77,30.64,4,0,6,0.00
2014-12-9,54,36,24,24,20,17,76,57,27,30.70,30.55,3,0,5,0.00
2014-12-10,55,34,22,23,18,15,83,57,25,30.61,30.48,4,0,7,0.00
2014-12-11,56,36,22,25,21,16,82,57,26,30.61,30.46,5,0,7,0.00
2014-12-12,55,40,24,32,27,20,90,64,39,30.59,30.44,3,0,4,0.00
2014-12-13,53,40,30,34,28,23,92,65,39,30.46,30.05,12,2,19,0.00
2014-12-14,32,29,27,29,25,22,93,86,79,30.41,30.00,16,4,21,0.01
2014-12-15,38,26,20,22,18,15,85,72,49,30.68,30.40,10,2,15,0.18
2014-12-16,37,27,18,26,19,14,89,73,55,30.73,30.55,2,0,6,0.01
2014-12-17,32,28,23,29,24,18,93,85,73,30.55,30.35,2,0,4,0.09
2014-12-18,34,29,23,29,26,20,93,87,76,30.53,30.43,3,0,8,0.05
2014-12-19,36,24,14,24,18,12,93,78,49,30.69,30.51,5,0,6,0.01
2014-12-20,42,25,11,22,17,8,90,74,44,30.70,30.54,4,0,8,0.01
2014-12-21,40,32,22,29,25,18,88,74,58,30.55,30.17,10,1,16,0.00
2014-12-22,43,34,23,31,27,17,92,77,58,30.16,29.86,17,5,26,0.00
2014-12-23,30,20,12,15,8,2,84,61,37,30.70,30.13,15,3,20,0.01
2014-12-24,35,22,4,12,6,-3,79,53,32,30.74,30.36,4,0,8,0.05
2014-12-25,35,28,16,27,18,9,92,68,46,30.35,30.06,8,1,12,0.01
2014-12-26,31,23,11,24,16,6,87,76,56,30.51,30.05,13,2,18,0.09
2014-12-27,27,13,2,13,6,-2,88,75,49,30.89,30.50,3,0,5,0.02
2014-12-28,32,16,-2,12,6,-7,87,65,37,30.87,30.67,7,0,11,0.02
2014-12-29,32,21,7,15,9,2,82,62,43,30.68,30.48,7,1,11,0.01
2014-12-30,26,15,4,12,6,-1,82,67,54,30.85,30.62,5,0,8,0.00
2014-12-31,28,16,5,14,9,1,86,72,53,30.87,30.62,3,0,9,0.00
2015-1-1,30,20,7,18,12,3,87,72,57,30.62,30.47,5,1,9,0.01
2015-1-2,31,15,2,13,7,-3,88,72,46,30.73,30.49,6,0,9,0.00